createdAt,value
2018-07-25T00:00:39.410Z,100711.00
2018-07-25T00:03:08.471Z,100712.00
2018-07-25T00:05:37.554Z,100715.00
2018-07-25T00:08:06.692Z,100716.00
2018-07-25T00:10:41.209Z,100714.00
2018-07-25T00:13:10.241Z,100711.00
2018-07-25T00:15:39.372Z,100712.00
2018-07-25T00:18:08.477Z,100712.00
2018-07-25T00:20:37.563Z,100709.00
2018-07-25T00:23:06.756Z,100711.00
2018-07-25T00:25:35.889Z,100714.00
2018-07-25T00:28:04.982Z,100715.00
2018-07-25T00:30:34.063Z,100719.00
2018-07-25T00:33:03.314Z,100712.00
2018-07-25T00:35:32.780Z,100716.00
2018-07-25T00:38:01.976Z,100707.00
2018-07-25T00:40:31.257Z,100705.00
2018-07-25T00:43:00.763Z,100713.00
2018-07-25T00:45:30.126Z,100710.00
2018-07-25T00:47:59.461Z,100714.00
2018-07-25T00:50:29.176Z,100706.00
2018-07-25T00:52:58.326Z,100708.00
2018-07-25T00:55:27.612Z,100701.00
2018-07-25T00:57:56.685Z,100707.00
2018-07-25T01:00:25.842Z,100710.00
2018-07-25T01:02:54.996Z,100717.00
2018-07-25T01:05:24.069Z,100705.00
2018-07-25T01:07:53.196Z,100713.00
2018-07-25T01:10:22.277Z,100713.00
2018-07-25T01:12:51.308Z,100712.00
2018-07-25T01:15:20.384Z,100716.00
2018-07-25T01:17:49.440Z,100702.00
2018-07-25T01:20:18.528Z,100716.00
2018-07-25T01:22:47.676Z,100712.00
2018-07-25T01:25:16.769Z,100717.00
2018-07-25T01:27:45.864Z,100706.00
2018-07-25T01:30:14.996Z,100716.00
2018-07-25T01:32:44.081Z,100708.00
2018-07-25T01:35:13.300Z,100724.00
2018-07-25T01:37:42.580Z,100712.00
2018-07-25T01:40:11.985Z,100706.00
2018-07-25T01:42:41.287Z,100716.00
2018-07-25T01:45:10.559Z,100707.00
2018-07-25T01:47:39.753Z,100716.00
2018-07-25T01:50:09.223Z,100719.00
2018-07-25T01:52:38.488Z,100721.00
2018-07-25T01:55:08.194Z,100722.00
2018-07-25T01:57:37.274Z,100715.00
2018-07-25T02:00:06.372Z,100719.00
2018-07-25T02:02:35.393Z,100721.00
2018-07-25T02:05:04.665Z,100723.00
2018-07-25T02:07:33.710Z,100723.00
2018-07-25T02:10:02.788Z,100722.00
2018-07-25T02:12:31.857Z,100727.00
2018-07-25T02:15:00.967Z,100728.00
2018-07-25T02:17:30.039Z,100727.00
2018-07-25T02:19:59.143Z,100731.00
2018-07-25T02:22:28.239Z,100730.00
2018-07-25T02:24:57.359Z,100733.00
2018-07-25T02:27:26.516Z,100740.00
2018-07-25T02:29:55.601Z,100738.00
2018-07-25T02:32:24.725Z,100736.00
2018-07-25T02:34:53.916Z,100739.00
2018-07-25T02:37:23.034Z,100736.00
2018-07-25T02:39:52.276Z,100738.00
2018-07-25T02:42:21.440Z,100743.00
2018-07-25T02:44:50.684Z,100744.00
2018-07-25T02:47:19.929Z,100740.00
2018-07-25T02:49:49.687Z,100741.00
2018-07-25T02:52:18.794Z,100737.00
2018-07-25T02:54:47.958Z,100739.00
2018-07-25T02:57:17.063Z,100742.00
2018-07-25T02:59:46.178Z,100745.00
2018-07-25T03:02:15.273Z,100745.00
2018-07-25T03:04:44.372Z,100739.00
2018-07-25T03:07:13.551Z,100742.00
2018-07-25T03:09:42.720Z,100753.00
2018-07-25T03:12:11.830Z,100746.00
2018-07-25T03:14:41.024Z,100755.00
2018-07-25T03:17:10.527Z,100750.00
2018-07-25T03:19:39.647Z,100750.00
2018-07-25T03:22:08.747Z,100754.00
2018-07-25T03:24:37.857Z,100750.00
2018-07-25T03:27:07.024Z,100754.00
2018-07-25T03:29:42.383Z,100745.00
2018-07-25T03:32:12.554Z,100746.00
2018-07-25T03:34:42.690Z,100747.00
2018-07-25T03:37:11.813Z,100747.00
2018-07-25T03:39:40.848Z,100751.00
2018-07-25T03:42:09.900Z,100747.00
2018-07-25T03:44:39.083Z,100743.00
2018-07-25T03:47:08.136Z,100748.00
2018-07-25T03:49:37.226Z,100746.00
2018-07-25T03:52:06.329Z,100747.00
2018-07-25T03:54:35.448Z,100746.00
2018-07-25T03:57:04.684Z,100754.00
2018-07-25T03:59:33.787Z,100751.00
2018-07-25T04:02:03.061Z,100751.00
2018-07-25T04:04:32.585Z,100752.00
2018-07-25T04:07:01.810Z,100751.00
2018-07-25T04:09:30.713Z,100742.00
2018-07-25T04:11:59.798Z,100743.00
2018-07-25T04:14:28.856Z,100749.00
2018-07-25T04:16:57.995Z,100749.00
2018-07-25T04:19:27.108Z,100757.00
2018-07-25T04:21:56.218Z,100753.00
2018-07-25T04:24:25.340Z,100755.00
2018-07-25T04:26:54.469Z,100750.00
2018-07-25T04:29:23.538Z,100750.00
2018-07-25T04:31:52.611Z,100760.00
2018-07-25T04:34:21.744Z,100752.00
2018-07-25T04:36:50.861Z,100758.00
2018-07-25T04:39:19.970Z,100758.00
2018-07-25T04:41:49.049Z,100760.00
2018-07-25T04:44:18.293Z,100762.00
2018-07-25T04:46:47.552Z,100766.00
2018-07-25T04:49:16.643Z,100764.00
2018-07-25T04:51:45.890Z,100764.00
2018-07-25T04:54:15.039Z,100770.00
2018-07-25T04:56:44.587Z,100761.00
2018-07-25T04:59:14.412Z,100767.00
2018-07-25T05:01:43.831Z,100770.00
2018-07-25T05:04:14.984Z,100774.00
2018-07-25T05:06:44.894Z,100776.00
2018-07-25T05:09:13.897Z,100773.00
2018-07-25T05:11:43.752Z,100777.00
2018-07-25T05:14:13.933Z,100785.00
2018-07-25T05:16:43.617Z,100784.00
2018-07-25T05:19:13.850Z,100790.00
2018-07-25T05:21:42.967Z,100796.00
2018-07-25T05:24:12.179Z,100794.00
2018-07-25T05:26:41.396Z,100793.00
2018-07-25T05:29:10.521Z,100802.00
2018-07-25T05:31:39.662Z,100799.00
2018-07-25T05:34:08.806Z,100800.00
2018-07-25T05:36:38.004Z,100796.00
2018-07-25T05:39:11.067Z,100803.00
2018-07-25T05:41:41.092Z,100799.00
2018-07-25T05:44:10.239Z,100798.00
2018-07-25T05:46:39.629Z,100800.00
2018-07-25T05:49:08.697Z,100803.00
2018-07-25T05:51:37.782Z,100797.00
2018-07-25T05:54:06.876Z,100800.00
2018-07-25T05:56:35.948Z,100797.00
2018-07-25T05:59:05.053Z,100788.00
2018-07-25T06:01:34.304Z,100670.00
2018-07-25T06:04:03.469Z,100792.00
2018-07-25T06:06:32.697Z,100797.00
2018-07-25T06:09:01.801Z,100795.00
2018-07-25T06:11:31.032Z,100794.00
2018-07-25T06:14:00.244Z,100797.00
2018-07-25T06:16:29.393Z,100804.00
2018-07-25T06:18:58.655Z,100797.00
2018-07-25T06:21:27.938Z,100797.00
2018-07-25T06:23:57.228Z,100797.00
2018-07-25T06:26:26.586Z,100775.00
2018-07-25T06:28:55.653Z,100805.00
2018-07-25T06:31:25.257Z,100800.00
2018-07-25T06:33:55.250Z,100810.00
2018-07-25T06:36:24.516Z,100814.00
2018-07-25T06:38:53.687Z,100811.00
2018-07-25T06:41:22.829Z,100811.00
2018-07-25T06:43:51.926Z,100807.00
2018-07-25T06:46:21.051Z,100814.00
2018-07-25T06:48:50.518Z,100800.00
2018-07-25T06:51:19.652Z,100805.00
2018-07-25T06:53:48.749Z,100810.00
2018-07-25T06:56:17.862Z,100810.00
2018-07-25T06:58:47.132Z,100811.00
2018-07-25T07:01:17.144Z,100817.00
2018-07-25T07:03:46.271Z,100823.00
2018-07-25T07:06:15.466Z,100816.00
2018-07-25T07:08:44.545Z,100823.00
2018-07-25T07:11:13.804Z,100813.00
2018-07-25T07:13:42.882Z,100815.00
2018-07-25T07:16:11.962Z,100824.00
2018-07-25T07:18:42.262Z,100818.00
2018-07-25T07:21:11.365Z,100826.00
2018-07-25T07:23:40.773Z,100819.00
2018-07-25T07:26:10.116Z,100815.00
2018-07-25T07:28:43.108Z,100824.00
2018-07-25T07:31:13.379Z,100819.00
2018-07-25T07:33:42.550Z,100814.00
2018-07-25T07:36:12.375Z,100813.00
2018-07-25T07:38:43.222Z,100815.00
2018-07-25T07:41:14.532Z,100820.00
2018-07-25T07:43:44.247Z,100815.00
2018-07-25T07:46:13.635Z,100823.00
2018-07-25T07:48:43.139Z,100829.00
2018-07-25T07:51:12.433Z,100827.00
2018-07-25T07:53:42.522Z,100835.00
2018-07-25T07:56:12.228Z,100833.00
2018-07-25T07:58:42.203Z,100833.00
2018-07-25T08:01:12.815Z,100835.00
2018-07-25T08:03:43.513Z,100835.00
2018-07-25T08:06:14.230Z,100836.00
2018-07-25T08:08:43.546Z,100837.00
2018-07-25T08:11:17.276Z,100837.00
2018-07-25T08:13:47.294Z,100835.00
2018-07-25T08:16:17.736Z,100835.00
2018-07-25T08:18:47.052Z,100826.00
2018-07-25T08:21:16.359Z,100830.00
2018-07-25T08:23:45.918Z,100835.00
2018-07-25T08:26:16.264Z,100839.00
2018-07-25T08:28:45.713Z,100837.00
2018-07-25T08:31:15.337Z,100833.00
2018-07-25T08:33:45.753Z,100837.00
2018-07-25T08:36:14.944Z,100826.00
2018-07-25T08:38:45.337Z,100830.00
2018-07-25T08:41:15.042Z,100829.00
2018-07-25T08:43:44.309Z,100831.00
2018-07-25T08:46:13.653Z,100829.00
2018-07-25T08:48:42.805Z,100833.00
2018-07-25T08:51:11.901Z,100834.00
2018-07-25T08:53:41.177Z,100838.00
2018-07-25T08:56:10.361Z,100830.00
2018-07-25T08:58:39.449Z,100834.00
2018-07-25T09:01:08.597Z,100834.00
2018-07-25T09:03:37.859Z,100836.00
2018-07-25T09:06:07.075Z,100834.00
2018-07-25T09:08:36.269Z,100827.00
2018-07-25T09:11:05.451Z,100828.00
2018-07-25T09:13:34.830Z,100831.00
2018-07-25T09:16:04.124Z,100836.00
2018-07-25T09:18:33.307Z,100831.00
2018-07-25T09:21:02.475Z,100828.00
2018-07-25T09:23:31.596Z,100830.00
2018-07-25T09:26:00.688Z,100835.00
2018-07-25T09:28:30.039Z,100832.00
2018-07-25T09:30:59.249Z,100828.00
2018-07-25T09:33:28.627Z,100830.00
2018-07-25T09:35:57.963Z,100831.00
2018-07-25T09:38:27.847Z,100834.00
2018-07-25T09:40:57.706Z,100832.00
2018-07-25T09:43:27.487Z,100827.00
2018-07-25T09:45:57.173Z,100833.00
2018-07-25T09:48:27.269Z,100818.00
2018-07-25T09:50:56.840Z,100826.00
2018-07-25T09:53:26.249Z,100822.00
2018-07-25T09:55:55.446Z,100819.00
2018-07-25T09:58:24.623Z,100822.00
2018-07-25T10:00:53.869Z,100811.00
2018-07-25T10:03:23.027Z,100815.00
2018-07-25T10:05:52.098Z,100816.00
2018-07-25T10:08:21.218Z,100812.00
2018-07-25T10:10:50.507Z,100808.00
2018-07-25T10:13:19.836Z,100811.00
2018-07-25T10:15:48.983Z,100820.00
2018-07-25T10:18:18.153Z,100807.00
2018-07-25T10:20:47.329Z,100814.00
2018-07-25T10:23:16.491Z,100810.00
2018-07-25T10:25:45.608Z,100816.00
2018-07-25T10:28:14.781Z,100813.00
2018-07-25T10:30:44.021Z,100815.00
2018-07-25T10:33:13.237Z,100812.00
2018-07-25T10:35:42.488Z,100813.00
2018-07-25T10:38:12.837Z,100802.00
2018-07-25T10:40:42.363Z,100810.00
2018-07-25T10:43:11.787Z,100809.00
2018-07-25T10:45:41.683Z,100807.00
2018-07-25T10:48:13.064Z,100806.00
2018-07-25T10:50:42.290Z,100808.00
2018-07-25T10:53:13.779Z,100802.00
2018-07-25T10:55:43.749Z,100797.00
2018-07-25T10:58:14.258Z,100805.00
2018-07-25T11:00:44.422Z,100803.00
2018-07-25T11:03:14.994Z,100804.00
2018-07-25T11:05:45.112Z,100800.00
2018-07-25T11:08:15.139Z,100796.00
2018-07-25T11:10:46.032Z,100794.00
2018-07-25T11:13:15.561Z,100795.00
2018-07-25T11:15:45.526Z,100805.00
2018-07-25T11:18:15.098Z,100801.00
2018-07-25T11:20:45.148Z,100797.00
2018-07-25T11:23:14.696Z,100794.00
2018-07-25T11:25:45.758Z,100798.00
2018-07-25T11:28:15.568Z,100790.00
2018-07-25T11:30:45.392Z,100789.00
2018-07-25T11:33:14.908Z,100792.00
2018-07-25T11:35:44.743Z,100786.00
2018-07-25T11:38:15.178Z,100795.00
2018-07-25T11:40:45.394Z,100787.00
2018-07-25T11:43:14.972Z,100788.00
2018-07-25T11:45:46.195Z,100783.00
2018-07-25T11:48:17.898Z,100779.00
2018-07-25T11:50:47.689Z,100785.00
2018-07-25T11:53:17.497Z,100777.00
2018-07-25T11:55:54.063Z,100779.00
2018-07-25T11:58:24.775Z,100776.00
2018-07-25T12:00:54.189Z,100780.00
2018-07-25T12:03:23.674Z,100775.00
2018-07-25T12:05:53.285Z,100767.00
2018-07-25T12:08:22.837Z,100771.00
2018-07-25T12:10:52.538Z,100766.00
2018-07-25T12:13:21.764Z,100769.00
2018-07-25T12:15:51.042Z,100764.00
2018-07-25T12:18:21.210Z,100756.00
2018-07-25T12:20:50.883Z,100758.00
2018-07-25T12:23:20.405Z,100755.00
2018-07-25T12:25:49.716Z,100759.00
2018-07-25T12:28:19.023Z,100763.00
2018-07-25T12:30:48.264Z,100751.00
2018-07-25T12:33:17.312Z,100750.00
2018-07-25T12:35:46.535Z,100753.00
2018-07-25T12:38:15.958Z,100749.00
2018-07-25T12:40:45.192Z,100753.00
2018-07-25T12:43:14.319Z,100750.00
2018-07-25T12:45:43.526Z,100753.00
2018-07-25T12:48:12.883Z,100748.00
2018-07-25T12:50:42.059Z,100743.00
2018-07-25T12:53:11.282Z,100745.00
2018-07-25T12:55:40.472Z,100739.00
2018-07-25T12:58:09.820Z,100745.00
2018-07-25T13:00:38.950Z,100736.00
2018-07-25T13:03:08.428Z,100735.00
2018-07-25T13:05:37.670Z,100735.00
2018-07-25T13:08:07.010Z,100732.00
2018-07-25T13:10:36.744Z,100727.00
2018-07-25T13:13:06.576Z,100715.00
2018-07-25T13:15:36.406Z,100717.00
2018-07-25T13:18:06.146Z,100714.00
2018-07-25T13:20:36.431Z,100715.00
2018-07-25T13:23:06.275Z,100710.00
2018-07-25T13:25:35.827Z,100709.00
2018-07-25T13:28:05.451Z,100704.00
2018-07-25T13:30:34.947Z,100713.00
2018-07-25T13:33:04.807Z,100709.00
2018-07-25T13:35:34.234Z,100696.00
2018-07-25T13:38:03.870Z,100712.00
2018-07-25T13:40:33.394Z,100697.00
2018-07-25T13:43:02.789Z,100709.00
2018-07-25T13:45:32.039Z,100711.00
2018-07-25T13:48:01.105Z,100712.00
2018-07-25T13:50:30.213Z,100706.00
2018-07-25T13:52:59.411Z,100714.00
2018-07-25T13:55:28.541Z,100712.00
2018-07-25T13:57:57.726Z,100706.00
2018-07-25T14:00:26.889Z,100717.00
2018-07-25T14:02:56.058Z,100709.00
2018-07-25T14:05:25.188Z,100704.00
2018-07-25T14:07:54.384Z,100704.00
2018-07-25T14:10:23.710Z,100710.00
2018-07-25T14:12:52.834Z,100710.00
2018-07-25T14:15:22.280Z,100698.00
2018-07-25T14:17:51.493Z,100699.00
2018-07-25T14:20:20.695Z,100706.00
2018-07-25T14:22:49.939Z,100701.00
2018-07-25T14:25:19.106Z,100703.00
2018-07-25T14:27:48.479Z,100715.00
2018-07-25T14:30:17.824Z,100726.00
2018-07-25T14:32:47.149Z,100731.00
2018-07-25T14:35:16.677Z,100732.00
2018-07-25T14:37:46.000Z,100771.00
2018-07-25T14:40:15.262Z,100780.00
2018-07-25T14:42:45.725Z,100787.00
2018-07-25T14:45:15.063Z,100787.00
2018-07-25T14:47:44.721Z,100787.00
2018-07-25T14:50:14.309Z,100794.00
2018-07-25T14:52:43.722Z,100791.00
2018-07-25T14:55:13.104Z,100812.00
2018-07-25T14:57:42.241Z,100805.00
2018-07-25T15:00:11.330Z,100815.00
2018-07-25T15:02:40.549Z,100823.00
2018-07-25T15:05:09.795Z,100827.00
2018-07-25T15:07:38.967Z,100830.00
2018-07-25T15:10:08.245Z,100834.00
2018-07-25T15:12:42.555Z,100836.00
2018-07-25T15:15:12.572Z,100845.00
2018-07-25T15:17:41.736Z,100860.00
2018-07-25T15:20:11.635Z,100876.00
2018-07-25T15:22:40.893Z,100883.00
2018-07-25T15:25:10.287Z,100901.00
2018-07-25T15:27:39.467Z,100914.00
2018-07-25T15:30:10.407Z,100928.00
2018-07-25T15:32:40.076Z,100934.00
2018-07-25T15:35:09.932Z,100940.00
2018-07-25T15:37:39.445Z,100925.00
2018-07-25T15:40:09.356Z,100912.00
2018-07-25T15:42:38.585Z,100909.00
2018-07-25T15:45:07.921Z,100914.00
2018-07-25T15:47:37.093Z,100916.00
2018-07-25T15:50:07.409Z,100916.00
2018-07-25T15:52:36.782Z,100923.00
2018-07-25T15:55:06.109Z,100911.00
2018-07-25T15:57:35.308Z,100896.00
2018-07-25T16:00:06.005Z,100889.00
2018-07-25T16:02:35.109Z,100886.00
2018-07-25T16:05:04.431Z,100867.00
2018-07-25T16:07:33.813Z,100865.00
2018-07-25T16:10:03.570Z,100861.00
2018-07-25T16:12:32.976Z,100852.00
2018-07-25T16:15:02.765Z,100846.00
2018-07-25T16:17:32.120Z,100836.00
2018-07-25T16:20:01.602Z,100843.00
2018-07-25T16:22:31.067Z,100829.00
2018-07-25T16:25:00.493Z,100837.00
2018-07-25T16:27:29.965Z,100829.00
2018-07-25T16:30:00.118Z,100835.00
2018-07-25T16:32:29.503Z,100821.00
2018-07-25T16:34:58.682Z,100824.00
2018-07-25T16:37:28.251Z,100808.00
2018-07-25T16:39:57.458Z,100810.00
2018-07-25T16:42:26.773Z,100809.00
2018-07-25T16:44:55.977Z,100821.00
2018-07-25T16:47:25.158Z,100808.00
2018-07-25T16:49:54.322Z,100812.00
2018-07-25T16:52:23.441Z,100812.00
2018-07-25T16:54:52.856Z,100809.00
2018-07-25T16:57:22.108Z,100803.00
2018-07-25T16:59:51.327Z,100802.00
2018-07-25T17:02:20.784Z,100801.00
2018-07-25T17:04:50.143Z,100800.00
2018-07-25T17:07:19.476Z,100799.00
2018-07-25T17:10:01.501Z,100803.00
2018-07-25T17:12:31.669Z,100802.00
2018-07-25T17:15:00.820Z,100797.00
2018-07-25T17:17:30.088Z,100798.00
2018-07-25T17:19:59.311Z,100802.00
2018-07-25T17:22:28.589Z,100801.00
2018-07-25T17:24:58.813Z,100807.00
2018-07-25T17:27:29.126Z,100808.00
2018-07-25T17:29:58.946Z,100807.00
2018-07-25T17:32:28.364Z,100803.00
2018-07-25T17:34:57.684Z,100797.00
2018-07-25T17:37:27.443Z,100801.00
2018-07-25T17:39:56.972Z,100811.00
2018-07-25T17:42:26.359Z,100804.00
2018-07-25T17:44:55.479Z,100805.00
2018-07-25T17:47:24.765Z,100805.00
2018-07-25T17:49:54.035Z,100803.00
2018-07-25T17:52:24.609Z,100803.00
2018-07-25T17:54:54.053Z,100804.00
2018-07-25T17:57:22.997Z,100802.00
2018-07-25T17:59:52.707Z,100809.00
2018-07-25T18:02:22.090Z,100799.00
2018-07-25T18:04:51.323Z,100804.00
2018-07-25T18:07:20.860Z,100810.00
2018-07-25T18:09:50.851Z,100811.00
2018-07-25T18:12:20.224Z,100802.00
2018-07-25T18:14:49.754Z,100803.00
2018-07-25T18:17:19.426Z,100801.00
2018-07-25T18:19:48.823Z,100805.00
2018-07-25T18:22:18.697Z,100813.00
2018-07-25T18:24:48.244Z,100808.00
2018-07-25T18:27:17.975Z,100827.00
2018-07-25T18:29:47.232Z,100827.00
2018-07-25T18:32:16.480Z,100824.00
2018-07-25T18:34:45.834Z,100822.00
2018-07-25T18:37:15.087Z,100829.00
2018-07-25T18:39:44.315Z,100822.00
2018-07-25T18:42:13.426Z,100838.00
2018-07-25T18:44:42.657Z,100827.00
2018-07-25T18:47:12.172Z,100826.00
2018-07-25T18:49:41.471Z,100830.00
2018-07-25T18:52:10.727Z,100827.00
2018-07-25T18:54:41.223Z,100824.00
2018-07-25T18:57:10.629Z,100833.00
2018-07-25T18:59:39.935Z,100835.00
2018-07-25T19:02:10.799Z,100844.00
2018-07-25T19:04:40.129Z,100846.00
2018-07-25T19:07:09.394Z,100844.00
2018-07-25T19:09:39.055Z,100844.00
2018-07-25T19:12:08.255Z,100864.00
2018-07-25T19:14:43.117Z,100850.00
2018-07-25T19:17:13.972Z,100852.00
2018-07-25T19:19:44.349Z,100856.00
2018-07-25T19:22:13.648Z,100854.00
2018-07-25T19:24:43.112Z,100863.00
2018-07-25T19:27:12.254Z,100867.00
2018-07-25T19:29:42.671Z,100869.00
2018-07-25T19:32:12.364Z,100867.00
2018-07-25T19:34:42.392Z,100869.00
2018-07-25T19:37:12.074Z,100870.00
2018-07-25T19:39:41.463Z,100868.00
2018-07-25T19:42:10.866Z,100875.00
2018-07-25T19:44:40.126Z,100884.00
2018-07-25T19:47:09.404Z,100883.00
2018-07-25T19:49:38.781Z,100878.00
2018-07-25T19:52:09.801Z,100885.00
2018-07-25T19:54:39.720Z,100878.00
2018-07-25T19:57:09.352Z,100873.00
2018-07-25T19:59:39.816Z,100875.00
2018-07-25T20:02:09.135Z,100883.00
2018-07-25T20:04:38.674Z,100878.00
2018-07-25T20:07:08.379Z,100880.00
2018-07-25T20:09:38.138Z,100880.00
2018-07-25T20:12:07.784Z,100850.00
2018-07-25T20:14:42.441Z,100874.00
2018-07-25T20:17:11.767Z,100882.00
2018-07-25T20:19:41.109Z,100887.00
2018-07-25T20:22:10.462Z,100881.00
2018-07-25T20:24:39.891Z,100877.00
2018-07-25T20:27:09.603Z,100881.00
2018-07-25T20:29:40.248Z,100890.00
2018-07-25T20:32:09.969Z,100884.00
2018-07-25T20:34:39.781Z,100886.00
2018-07-25T20:37:09.714Z,100891.00
2018-07-25T20:39:39.153Z,100888.00
2018-07-25T20:42:09.134Z,100889.00
2018-07-25T20:44:39.323Z,100891.00
2018-07-25T20:47:08.510Z,100895.00
2018-07-25T20:49:37.841Z,100887.00
2018-07-25T20:52:07.261Z,100890.00
2018-07-25T20:54:36.541Z,100891.00
2018-07-25T20:57:05.931Z,100895.00
2018-07-25T20:59:35.233Z,100894.00
2018-07-25T21:02:04.631Z,100883.00
2018-07-25T21:04:33.935Z,100893.00
2018-07-25T21:07:03.100Z,100890.00
2018-07-25T21:09:32.234Z,100888.00
2018-07-25T21:12:01.441Z,100885.00
2018-07-25T21:14:30.579Z,100881.00
2018-07-25T21:16:59.596Z,100889.00
2018-07-25T21:19:28.870Z,100888.00
2018-07-25T21:21:58.333Z,100887.00
2018-07-25T21:24:28.123Z,100892.00
2018-07-25T21:26:57.362Z,100894.00
2018-07-25T21:29:26.473Z,100886.00
2018-07-25T21:31:55.719Z,100898.00
2018-07-25T21:34:25.052Z,100891.00
2018-07-25T21:36:54.218Z,100898.00
2018-07-25T21:39:23.516Z,100901.00
2018-07-25T21:41:52.854Z,100893.00
2018-07-25T21:44:22.834Z,100896.00
2018-07-25T21:46:52.121Z,100896.00
2018-07-25T21:49:21.321Z,100902.00
2018-07-25T21:51:50.623Z,100907.00
2018-07-25T21:54:20.183Z,100907.00
2018-07-25T21:56:49.422Z,100908.00
2018-07-25T21:59:18.554Z,100909.00
2018-07-25T22:01:47.765Z,100914.00
2018-07-25T22:04:16.828Z,100915.00
2018-07-25T22:06:45.938Z,100908.00
2018-07-25T22:09:15.135Z,100914.00
2018-07-25T22:11:44.354Z,100914.00
2018-07-25T22:14:13.395Z,100914.00
2018-07-25T22:16:42.548Z,100915.00
2018-07-25T22:19:11.672Z,100916.00
2018-07-25T22:21:40.786Z,100924.00
2018-07-25T22:24:09.879Z,100927.00
2018-07-25T22:26:38.988Z,100925.00
2018-07-25T22:29:08.151Z,100930.00
2018-07-25T22:31:37.338Z,100930.00
2018-07-25T22:34:06.577Z,100932.00
2018-07-25T22:36:35.733Z,100925.00
2018-07-25T22:39:07.765Z,100943.00
2018-07-25T22:41:37.073Z,100934.00
2018-07-25T22:44:06.452Z,100937.00
2018-07-25T22:46:35.716Z,100936.00
2018-07-25T22:49:04.790Z,100936.00
2018-07-25T22:51:34.133Z,100934.00
2018-07-25T22:54:03.594Z,100938.00
2018-07-25T22:56:32.790Z,100934.00
2018-07-25T22:59:02.900Z,100934.00
2018-07-25T23:01:32.128Z,100926.00
2018-07-25T23:04:01.262Z,100942.00
2018-07-25T23:06:30.344Z,100937.00
2018-07-25T23:08:59.429Z,100934.00
2018-07-25T23:11:28.511Z,100926.00
2018-07-25T23:13:57.601Z,100934.00
2018-07-25T23:16:26.657Z,100934.00
2018-07-25T23:18:55.697Z,100937.00
2018-07-25T23:21:24.792Z,100937.00
2018-07-25T23:23:53.864Z,100939.00
2018-07-25T23:26:22.968Z,100942.00
2018-07-25T23:28:52.072Z,100936.00
2018-07-25T23:31:21.199Z,100945.00
2018-07-25T23:33:50.970Z,100938.00
2018-07-25T23:36:20.297Z,100947.00
2018-07-25T23:38:49.471Z,100951.00
2018-07-25T23:41:18.525Z,100948.00
2018-07-25T23:43:47.626Z,100947.00
2018-07-25T23:46:16.747Z,100945.00
2018-07-25T23:48:46.328Z,100943.00
2018-07-25T23:51:15.792Z,100948.00
2018-07-25T23:53:44.955Z,100949.00
2018-07-25T23:56:14.120Z,100947.00
2018-07-25T23:58:43.529Z,100946.00
